Elloree, SC (29047)

11:11 PM EDT on August 31, 2015 (GMT -0400)
Santee State Park-K9YS | | Change Station
CLOSE
Current Station
Personal Weather Station
Location: Santee, SC
Elevation: 135 ft
Nearby Weather Stations

Elev 135 ft 33.52 °N, 80.50 °W | Updated 3 minutes ago

Partly Cloudy
Partly Cloudy
73.6 °F
Feels Like 70 °F
N
0.0
Wind Variable Wind from NE
Gusts 0.0 mph

Today
High -- | Low -- °F
--% Chance of Precip.
Yesterday
High -- | Low -- °F
Precip. -- in
6:55 AM 7:49 PM
Waning Gibbous, 92% visible
Pressure 30.09 in
Visibility 10.0 miles
Clouds Few 4600 ft
Heat Index 70 °F
Dew Point 72 °F
Humidity 95%
Rainfall 0.20 in
Snow Depth Not available.
UV 0 out of 12
Pollen 5.00 out of 12
Air Quality Not available.
Flu Activity Not available.
METAR KOGB 010253Z AUTO 00000KT 10SM FEW046 23/22 A3010 RMK AO2 RAB12E22 SLP189 P0000 60000 T02280217 51014
Pressure 30.09 in
Visibility 10.0 miles
Clouds Few 4600 ft
Heat Index 70 °F
Dew Point 72 °F
Humidity 95%
Rainfall 0.20 in
Snow Depth Not available.
UV 0 out of 12
Pollen 5.00 out of 12
Air Quality Not available.
Flu Activity Not available.
METAR KOGB 010253Z AUTO 00000KT 10SM FEW046 23/22 A3010 RMK AO2 RAB12E22 SLP189 P0000 60000 T02280217 51014

10-Day Weather Forecast

×

Almanac

Astronomy

Aug. 31, 2015 Rise Set
Actual Time
Civil Twilight
Nautical Twilight
Astronomical Twilight
Moon
Length of Visible Light
Length of Day
Tomorrow will be .
, % of the Moon is Illuminated

Today's Extremes

State Highs State Lows

Community

WunderPhotos

Upload Photos

1,851,471 photos uploaded!

WunderBlogs® & News

Nearby

Air Quality

  Air Quality AQ Index Pollutant
Not available.

Snow Depth

Station Depth Elevation

Earthquake Activity

City Distance Mag. Time & Date
Minimum magnitude displayed is 2.5.

Coastal Water Temperatures

Place Temperature

Stations

Nearby Weather Stations

Station Location Temp. Windchill Dew Point Humidity Wind Precip. Elev Updated Type